sensor_id;sensor_type;location;lat;lon;timestamp;pressure;altitude;pressure_sealevel;temperature;humidity
48390;BME280;34643;47.964;7.982;2023-07-28T00:04:44;96097.41;;;19.86;60.00
48390;BME280;34643;47.964;7.982;2023-07-28T00:09:45;96085.16;;;19.86;59.85
48390;BME280;34643;47.964;7.982;2023-07-28T00:14:45;96097.94;;;19.89;59.73
48390;BME280;34643;47.964;7.982;2023-07-28T00:19:46;96089.94;;;19.91;59.70
48390;BME280;34643;47.964;7.982;2023-07-28T00:24:46;96093.56;;;19.90;59.62
48390;BME280;34643;47.964;7.982;2023-07-28T00:29:46;96094.38;;;19.90;59.65
48390;BME280;34643;47.964;7.982;2023-07-28T00:34:47;96091.34;;;19.85;59.89
48390;BME280;34643;47.964;7.982;2023-07-28T00:39:47;96085.84;;;19.88;59.69
48390;BME280;34643;47.964;7.982;2023-07-28T00:44:48;96086.50;;;19.90;59.65
48390;BME280;34643;47.964;7.982;2023-07-28T00:49:48;96083.88;;;19.90;59.59
48390;BME280;34643;47.964;7.982;2023-07-28T00:54:49;96083.06;;;19.90;59.54
48390;BME280;34643;47.964;7.982;2023-07-28T00:59:49;96087.94;;;19.85;59.99
48390;BME280;34643;47.964;7.982;2023-07-28T01:04:50;96096.88;;;19.82;60.04
48390;BME280;34643;47.964;7.982;2023-07-28T01:09:52;96089.41;;;19.87;59.77
48390;BME280;34643;47.964;7.982;2023-07-28T01:14:56;96107.34;;;19.82;59.92
48390;BME280;34643;47.964;7.982;2023-07-28T01:19:57;96106.13;;;19.86;59.70
48390;BME280;34643;47.964;7.982;2023-07-28T01:30:04;96108.72;;;19.86;59.87
48390;BME280;34643;47.964;7.982;2023-07-28T01:35:05;96101.84;;;19.85;59.96
48390;BME280;34643;47.964;7.982;2023-07-28T01:40:06;96113.72;;;19.80;60.13
48390;BME280;34643;47.964;7.982;2023-07-28T01:45:06;96109.97;;;19.82;59.92
48390;BME280;34643;47.964;7.982;2023-07-28T01:50:07;96114.25;;;19.83;60.01
48390;BME280;34643;47.964;7.982;2023-07-28T01:55:07;96126.97;;;19.78;60.21
48390;BME280;34643;47.964;7.982;2023-07-28T02:00:08;96125.81;;;19.81;60.12
48390;BME280;34643;47.964;7.982;2023-07-28T02:05:14;96133.41;;;19.84;60.14
48390;BME280;34643;47.964;7.982;2023-07-28T02:10:14;96140.72;;;19.80;60.06
48390;BME280;34643;47.964;7.982;2023-07-28T02:15:15;96143.63;;;19.77;60.38
48390;BME280;34643;47.964;7.982;2023-07-28T02:20:15;96142.53;;;19.70;60.84
48390;BME280;34643;47.964;7.982;2023-07-28T02:25:15;96147.63;;;19.71;60.75
48390;BME280;34643;47.964;7.982;2023-07-28T02:30:16;96151.78;;;19.74;60.74
48390;BME280;34643;47.964;7.982;2023-07-28T02:35:16;96147.09;;;19.78;60.52
48390;BME280;34643;47.964;7.982;2023-07-28T02:40:16;96153.00;;;19.80;60.50
48390;BME280;34643;47.964;7.982;2023-07-28T02:45:17;96158.50;;;19.77;60.86
48390;BME280;34643;47.964;7.982;2023-07-28T02:50:18;96166.22;;;19.78;60.71
48390;BME280;34643;47.964;7.982;2023-07-28T02:55:18;96171.88;;;19.73;61.20
48390;BME280;34643;47.964;7.982;2023-07-28T03:00:19;96174.38;;;19.75;61.11
48390;BME280;34643;47.964;7.982;2023-07-28T03:05:19;96171.47;;;19.78;60.85
48390;BME280;34643;47.964;7.982;2023-07-28T03:10:45;96167.34;;;19.75;60.92
48390;BME280;34643;47.964;7.982;2023-07-28T03:15:46;96174.09;;;19.78;61.12
48390;BME280;34643;47.964;7.982;2023-07-28T03:20:47;96163.47;;;19.80;61.01
48390;BME280;34643;47.964;7.982;2023-07-28T03:25:47;96165.09;;;19.81;61.04
48390;BME280;34643;47.964;7.982;2023-07-28T03:30:47;96167.06;;;19.79;61.54
48390;BME280;34643;47.964;7.982;2023-07-28T03:35:48;96163.91;;;19.75;61.92
48390;BME280;34643;47.964;7.982;2023-07-28T03:40:48;96157.41;;;19.79;61.41
48390;BME280;34643;47.964;7.982;2023-07-28T03:45:50;96162.50;;;19.81;61.26
48390;BME280;34643;47.964;7.982;2023-07-28T03:50:51;96157.22;;;19.90;60.66
48390;BME280;34643;47.964;7.982;2023-07-28T03:55:52;96155.94;;;19.94;60.42
48390;BME280;34643;47.964;7.982;2023-07-28T04:00:53;96150.44;;;19.98;60.04
48390;BME280;34643;47.964;7.982;2023-07-28T04:05:54;96152.09;;;19.99;59.94
48390;BME280;34643;47.964;7.982;2023-07-28T04:10:54;96148.50;;;20.00;59.74
48390;BME280;34643;47.964;7.982;2023-07-28T04:15:54;96152.78;;;20.01;59.75
48390;BME280;34643;47.964;7.982;2023-07-28T04:20:56;96151.78;;;20.02;59.55
48390;BME280;34643;47.964;7.982;2023-07-28T04:25:56;96155.25;;;20.02;59.50
48390;BME280;34643;47.964;7.982;2023-07-28T04:30:58;96151.78;;;20.02;59.36
48390;BME280;34643;47.964;7.982;2023-07-28T04:36:21;96157.69;;;20.04;59.15
48390;BME280;34643;47.964;7.982;2023-07-28T04:41:22;96169.84;;;20.05;59.08
48390;BME280;34643;47.964;7.982;2023-07-28T04:46:26;96164.59;;;20.05;59.08
48390;BME280;34643;47.964;7.982;2023-07-28T04:51:30;96169.03;;;20.04;58.89
48390;BME280;34643;47.964;7.982;2023-07-28T04:56:52;96166.25;;;20.06;58.88
48390;BME280;34643;47.964;7.982;2023-07-28T05:01:56;96173.13;;;20.07;58.80
48390;BME280;34643;47.964;7.982;2023-07-28T05:06:56;96167.06;;;20.06;58.63
48390;BME280;34643;47.964;7.982;2023-07-28T05:11:57;96164.44;;;20.06;58.71
48390;BME280;34643;47.964;7.982;2023-07-28T05:16:58;96165.28;;;20.07;58.71
48390;BME280;34643;47.964;7.982;2023-07-28T05:22:06;96183.47;;;20.08;58.53
48390;BME280;34643;47.964;7.982;2023-07-28T05:27:33;96180.03;;;20.08;58.57
48390;BME280;34643;47.964;7.982;2023-07-28T05:32:33;96187.75;;;20.09;58.50
48390;BME280;34643;47.964;7.982;2023-07-28T05:37:42;96182.66;;;20.08;58.40
48390;BME280;34643;47.964;7.982;2023-07-28T05:42:43;96186.09;;;20.08;58.40
48390;BME280;34643;47.964;7.982;2023-07-28T05:47:43;96193.00;;;20.09;58.17
48390;BME280;34643;47.964;7.982;2023-07-28T05:52:43;96191.03;;;20.11;58.26
48390;BME280;34643;47.964;7.982;2023-07-28T05:57:44;96192.13;;;20.09;58.89
48390;BME280;34643;47.964;7.982;2023-07-28T06:02:44;96209.66;;;20.08;59.01
48390;BME280;34643;47.964;7.982;2023-07-28T06:07:56;96201.81;;;20.08;59.12
48390;BME280;34643;47.964;7.982;2023-07-28T06:12:56;96214.09;;;20.08;59.62
48390;BME280;34643;47.964;7.982;2023-07-28T06:17:57;96214.91;;;20.08;59.48
48390;BME280;34643;47.964;7.982;2023-07-28T06:22:57;96223.72;;;20.07;59.50
48390;BME280;34643;47.964;7.982;2023-07-28T06:27:58;96224.56;;;20.08;59.55
48390;BME280;34643;47.964;7.982;2023-07-28T06:32:58;96226.19;;;20.09;59.80
48390;BME280;34643;47.964;7.982;2023-07-28T06:37:59;96229.66;;;20.09;59.77
48390;BME280;34643;47.964;7.982;2023-07-28T06:43:00;96230.47;;;20.10;60.17
48390;BME280;34643;47.964;7.982;2023-07-28T06:48:00;96229.81;;;20.08;60.84
48390;BME280;34643;47.964;7.982;2023-07-28T06:53:00;96234.06;;;20.09;60.88
48390;BME280;34643;47.964;7.982;2023-07-28T06:58:01;96240.97;;;20.10;60.71
48390;BME280;34643;47.964;7.982;2023-07-28T07:03:02;96254.06;;;20.10;60.71
48390;BME280;34643;47.964;7.982;2023-07-28T07:08:02;96248.00;;;20.09;60.51
48390;BME280;34643;47.964;7.982;2023-07-28T07:13:02;96255.88;;;20.09;60.60
48390;BME280;34643;47.964;7.982;2023-07-28T07:18:03;96256.69;;;20.10;60.05
48390;BME280;34643;47.964;7.982;2023-07-28T07:23:04;96262.75;;;20.10;60.25
48390;BME280;34643;47.964;7.982;2023-07-28T07:28:04;96258.47;;;20.09;59.80
48390;BME280;34643;47.964;7.982;2023-07-28T07:33:04;96260.25;;;20.09;60.18
48390;BME280;34643;47.964;7.982;2023-07-28T07:38:05;96273.34;;;20.09;59.78
48390;BME280;34643;47.964;7.982;2023-07-28T07:43:09;96277.63;;;20.10;59.42
48390;BME280;34643;47.964;7.982;2023-07-28T07:48:09;96281.06;;;20.10;59.61
48390;BME280;34643;47.964;7.982;2023-07-28T07:53:09;96276.81;;;20.09;59.76
48390;BME280;34643;47.964;7.982;2023-07-28T07:58:10;96282.88;;;20.10;59.36
48390;BME280;34643;47.964;7.982;2023-07-28T08:03:10;96276.81;;;20.09;59.42
48390;BME280;34643;47.964;7.982;2023-07-28T08:08:10;96283.03;;;20.08;59.08
48390;BME280;34643;47.964;7.982;2023-07-28T08:13:11;96285.63;;;20.08;59.13
48390;BME280;34643;47.964;7.982;2023-07-28T08:18:12;96302.19;;;20.09;59.17
48390;BME280;34643;47.964;7.982;2023-07-28T08:23:12;96298.75;;;20.08;59.18
48390;BME280;34643;47.964;7.982;2023-07-28T08:28:13;96307.81;;;20.24;59.25
48390;BME280;34643;47.964;7.982;2023-07-28T08:33:13;96315.94;;;20.21;58.90
48390;BME280;34643;47.964;7.982;2023-07-28T08:38:13;96305.59;;;20.19;58.90
48390;BME280;34643;47.964;7.982;2023-07-28T08:43:14;96316.63;;;20.23;59.26
48390;BME280;34643;47.964;7.982;2023-07-28T08:48:15;96309.56;;;20.23;59.40
48390;BME280;34643;47.964;7.982;2023-07-28T08:53:16;96311.38;;;20.23;59.39
48390;BME280;34643;47.964;7.982;2023-07-28T08:58:20;96309.75;;;20.22;59.66
48390;BME280;34643;47.964;7.982;2023-07-28T09:03:21;96317.16;;;20.26;59.85
48390;BME280;34643;47.964;7.982;2023-07-28T09:08:22;96328.31;;;20.28;59.98
48390;BME280;34643;47.964;7.982;2023-07-28T09:13:24;96320.19;;;20.31;59.90
48390;BME280;34643;47.964;7.982;2023-07-28T09:18:24;96322.78;;;20.31;60.00
48390;BME280;34643;47.964;7.982;2023-07-28T09:23:30;96319.22;;;20.32;60.29
48390;BME280;34643;47.964;7.982;2023-07-28T09:28:37;96319.75;;;20.36;60.25
48390;BME280;34643;47.964;7.982;2023-07-28T09:33:39;96323.72;;;20.40;60.20
48390;BME280;34643;47.964;7.982;2023-07-28T09:38:42;96321.94;;;20.41;60.18
48390;BME280;34643;47.964;7.982;2023-07-28T09:43:43;96315.59;;;20.33;59.89
48390;BME280;34643;47.964;7.982;2023-07-28T09:48:45;96315.22;;;20.28;59.90
48390;BME280;34643;47.964;7.982;2023-07-28T09:53:53;96316.19;;;20.27;59.85
48390;BME280;34643;47.964;7.982;2023-07-28T09:58:55;96306.69;;;20.26;60.14
48390;BME280;34643;47.964;7.982;2023-07-28T10:03:56;96304.06;;;20.26;60.22
48390;BME280;34643;47.964;7.982;2023-07-28T10:08:56;96315.34;;;20.27;59.78
48390;BME280;34643;47.964;7.982;2023-07-28T10:13:56;96310.97;;;20.27;59.46
48390;BME280;34643;47.964;7.982;2023-07-28T10:18:58;96310.09;;;20.27;59.39
48390;BME280;34643;47.964;7.982;2023-07-28T10:23:59;96304.88;;;20.27;59.32
48390;BME280;34643;47.964;7.982;2023-07-28T10:29:09;96310.09;;;20.27;59.27
48390;BME280;34643;47.964;7.982;2023-07-28T10:34:10;96319.78;;;20.26;59.19
48390;BME280;34643;47.964;7.982;2023-07-28T10:39:14;96320.75;;;20.25;59.13
48390;BME280;34643;47.964;7.982;2023-07-28T10:44:16;96318.97;;;20.26;59.08
48390;BME280;34643;47.964;7.982;2023-07-28T10:49:17;96321.72;;;20.24;59.03
48390;BME280;34643;47.964;7.982;2023-07-28T10:54:17;96339.09;;;20.25;58.95
48390;BME280;34643;47.964;7.982;2023-07-28T10:59:20;96327.78;;;20.25;58.98
48390;BME280;34643;47.964;7.982;2023-07-28T11:04:21;96332.88;;;20.26;59.00
48390;BME280;34643;47.964;7.982;2023-07-28T11:09:23;96326.00;;;20.25;59.08
48390;BME280;34643;47.964;7.982;2023-07-28T11:14:23;96325.16;;;20.25;58.94
48390;BME280;34643;47.964;7.982;2023-07-28T11:19:24;96314.69;;;20.25;58.97
48390;BME280;34643;47.964;7.982;2023-07-28T11:24:24;96312.06;;;20.25;58.98
48390;BME280;34643;47.964;7.982;2023-07-28T11:29:26;96311.09;;;20.26;58.91
48390;BME280;34643;47.964;7.982;2023-07-28T11:34:27;96307.66;;;20.25;59.16
48390;BME280;34643;47.964;7.982;2023-07-28T11:39:28;96304.19;;;20.25;59.06
48390;BME280;34643;47.964;7.982;2023-07-28T11:44:28;96306.81;;;20.25;58.94
48390;BME280;34643;47.964;7.982;2023-07-28T11:49:28;96297.19;;;20.25;59.04
48390;BME280;34643;47.964;7.982;2023-07-28T11:54:29;96301.44;;;20.26;59.10
48390;BME280;34643;47.964;7.982;2023-07-28T11:59:29;96300.47;;;20.27;58.88
48390;BME280;34643;47.964;7.982;2023-07-28T12:04:30;96294.38;;;20.27;58.88
48390;BME280;34643;47.964;7.982;2023-07-28T12:09:30;96292.75;;;20.26;58.97
48390;BME280;34643;47.964;7.982;2023-07-28T12:14:34;96298.00;;;20.26;58.90
48390;BME280;34643;47.964;7.982;2023-07-28T12:19:40;96311.09;;;20.26;58.94
48390;BME280;34643;47.964;7.982;2023-07-28T12:24:40;96314.53;;;20.26;58.83
48390;BME280;34643;47.964;7.982;2023-07-28T12:29:40;96310.28;;;20.25;58.93
48390;BME280;34643;47.964;7.982;2023-07-28T12:34:40;96319.78;;;20.26;58.45
48390;BME280;34643;47.964;7.982;2023-07-28T12:39:41;96322.41;;;20.26;58.92
48390;BME280;34643;47.964;7.982;2023-07-28T12:44:41;96326.69;;;20.27;58.84
48390;BME280;34643;47.964;7.982;2023-07-28T12:49:41;96322.25;;;20.28;58.67
48390;BME280;34643;47.964;7.982;2023-07-28T12:54:42;96316.19;;;20.27;58.79
48390;BME280;34643;47.964;7.982;2023-07-28T12:59:42;96328.31;;;20.28;58.69
48390;BME280;34643;47.964;7.982;2023-07-28T13:04:43;96345.72;;;20.29;58.73
48390;BME280;34643;47.964;7.982;2023-07-28T13:09:43;96342.28;;;20.29;58.75
48390;BME280;34643;47.964;7.982;2023-07-28T13:14:43;96371.91;;;20.29;58.71
48390;BME280;34643;47.964;7.982;2023-07-28T13:19:43;96379.78;;;20.29;58.75
48390;BME280;34643;47.964;7.982;2023-07-28T13:24:44;96380.47;;;20.31;58.85
48390;BME280;34643;47.964;7.982;2023-07-28T13:29:44;96367.50;;;20.30;58.89
48390;BME280;34643;47.964;7.982;2023-07-28T13:34:45;96370.09;;;20.30;58.88
48390;BME280;34643;47.964;7.982;2023-07-28T13:39:45;96363.91;;;20.31;58.90
48390;BME280;34643;47.964;7.982;2023-07-28T13:44:45;96348.19;;;20.31;58.81
48390;BME280;34643;47.964;7.982;2023-07-28T13:49:45;96358.66;;;20.31;58.97
48390;BME280;34643;47.964;7.982;2023-07-28T13:54:46;96358.66;;;20.31;58.63
48390;BME280;34643;47.964;7.982;2023-07-28T13:59:46;96346.38;;;20.31;58.85
48390;BME280;34643;47.964;7.982;2023-07-28T14:04:46;96341.81;;;20.33;58.84
48390;BME280;34643;47.964;7.982;2023-07-28T14:09:46;96340.59;;;20.38;59.09
48390;BME280;34643;47.964;7.982;2023-07-28T14:14:47;96322.25;;;20.38;59.17
48390;BME280;34643;47.964;7.982;2023-07-28T14:19:47;96323.19;;;20.37;59.19
48390;BME280;34643;47.964;7.982;2023-07-28T14:24:47;96329.41;;;20.36;59.51
48390;BME280;34643;47.964;7.982;2023-07-28T14:29:48;96331.06;;;20.37;59.83
48390;BME280;34643;47.964;7.982;2023-07-28T14:34:48;96342.34;;;20.37;59.60
48390;BME280;34643;47.964;7.982;2023-07-28T14:39:48;96335.16;;;20.39;59.55
48390;BME280;34643;47.964;7.982;2023-07-28T14:44:48;96346.50;;;20.40;59.43
48390;BME280;34643;47.964;7.982;2023-07-28T14:49:49;96352.72;;;20.39;59.34
48390;BME280;34643;47.964;7.982;2023-07-28T14:54:49;96346.50;;;20.40;59.15
48390;BME280;34643;47.964;7.982;2023-07-28T14:59:49;96355.03;;;20.42;59.27
48390;BME280;34643;47.964;7.982;2023-07-28T15:04:49;96369.09;;;20.41;59.28
48390;BME280;34643;47.964;7.982;2023-07-28T15:09:51;96363.88;;;20.41;59.13
48390;BME280;34643;47.964;7.982;2023-07-28T15:14:51;96368.28;;;20.40;59.02
48390;BME280;34643;47.964;7.982;2023-07-28T15:19:51;96371.06;;;20.39;59.51
48390;BME280;34643;47.964;7.982;2023-07-28T15:24:52;96366.50;;;20.41;59.33
48390;BME280;34643;47.964;7.982;2023-07-28T15:29:52;96360.44;;;20.40;59.50
48390;BME280;34643;47.964;7.982;2023-07-28T15:34:52;96357.00;;;20.40;59.38
48390;BME280;34643;47.964;7.982;2023-07-28T15:39:52;96357.66;;;20.42;59.77
48390;BME280;34643;47.964;7.982;2023-07-28T15:44:53;96353.09;;;20.44;60.14
48390;BME280;34643;47.964;7.982;2023-07-28T15:49:53;96335.44;;;20.46;60.33
48390;BME280;34643;47.964;7.982;2023-07-28T15:54:54;96359.03;;;20.46;60.40
48390;BME280;34643;47.964;7.982;2023-07-28T15:59:54;96335.16;;;20.49;60.76
48390;BME280;34643;47.964;7.982;2023-07-28T16:04:54;96381.47;;;20.58;60.73
48390;BME280;34643;47.964;7.982;2023-07-28T16:09:54;96393.06;;;20.65;60.60
48390;BME280;34643;47.964;7.982;2023-07-28T16:14:55;96383.03;;;21.16;59.50
48390;BME280;34643;47.964;7.982;2023-07-28T16:19:56;96390.25;;;21.04;60.48
48390;BME280;34643;47.964;7.982;2023-07-28T16:24:57;96388.16;;;20.80;60.64
48390;BME280;34643;47.964;7.982;2023-07-28T16:29:57;96386.56;;;20.69;60.66
48390;BME280;34643;47.964;7.982;2023-07-28T16:34:58;96381.75;;;20.65;60.93
48390;BME280;34643;47.964;7.982;2023-07-28T16:39:58;96379.28;;;20.63;60.77
48390;BME280;34643;47.964;7.982;2023-07-28T16:44:58;96374.19;;;20.62;60.67
48390;BME280;34643;47.964;7.982;2023-07-28T16:49:59;96377.75;;;20.61;60.58
48390;BME280;34643;47.964;7.982;2023-07-28T16:55:00;96364.66;;;20.61;60.24
48390;BME280;34643;47.964;7.982;2023-07-28T17:00:00;96379.53;;;20.60;60.21
48390;BME280;34643;47.964;7.982;2023-07-28T17:05:00;96388.38;;;20.59;60.18
48390;BME280;34643;47.964;7.982;2023-07-28T17:10:01;96385.63;;;20.61;60.22
48390;BME280;34643;47.964;7.982;2023-07-28T17:15:01;96390.00;;;20.60;60.25
48390;BME280;34643;47.964;7.982;2023-07-28T17:20:01;96397.88;;;20.60;60.38
48390;BME280;34643;47.964;7.982;2023-07-28T17:25:02;96392.63;;;20.60;60.50
48390;BME280;34643;47.964;7.982;2023-07-28T17:30:03;96395.25;;;20.60;60.47
48390;BME280;34643;47.964;7.982;2023-07-28T17:35:03;96389.19;;;20.60;60.39
48390;BME280;34643;47.964;7.982;2023-07-28T17:40:04;96391.00;;;20.59;60.77
48390;BME280;34643;47.964;7.982;2023-07-28T17:45:04;96378.84;;;20.58;60.90
48390;BME280;34643;47.964;7.982;2023-07-28T17:50:07;96387.53;;;20.59;60.84
48390;BME280;34643;47.964;7.982;2023-07-28T17:55:09;96383.97;;;20.60;60.96
48390;BME280;34643;47.964;7.982;2023-07-28T18:00:10;96378.72;;;20.60;60.71
48390;BME280;34643;47.964;7.982;2023-07-28T18:05:10;96379.53;;;20.60;60.94
48390;BME280;34643;47.964;7.982;2023-07-28T18:10:10;96372.66;;;20.59;60.75
48390;BME280;34643;47.964;7.982;2023-07-28T18:15:11;96367.41;;;20.59;60.80
48390;BME280;34643;47.964;7.982;2023-07-28T18:20:11;96372.78;;;20.58;60.73
48390;BME280;34643;47.964;7.982;2023-07-28T18:25:11;96370.97;;;20.58;60.77
48390;BME280;34643;47.964;7.982;2023-07-28T18:30:12;96377.19;;;20.57;60.79
48390;BME280;34643;47.964;7.982;2023-07-28T18:35:13;96382.44;;;20.57;60.64
48390;BME280;34643;47.964;7.982;2023-07-28T18:40:13;96384.22;;;20.57;60.93
48390;BME280;34643;47.964;7.982;2023-07-28T18:45:13;96387.84;;;20.56;61.00
48390;BME280;34643;47.964;7.982;2023-07-28T18:50:14;96392.09;;;20.57;61.22
48390;BME280;34643;47.964;7.982;2023-07-28T18:55:14;96398.16;;;20.57;61.83
48390;BME280;34643;47.964;7.982;2023-07-28T19:00:14;96404.38;;;20.56;61.95
48390;BME280;34643;47.964;7.982;2023-07-28T19:05:15;96427.16;;;20.56;62.08
48390;BME280;34643;47.964;7.982;2023-07-28T19:10:15;96428.13;;;20.55;62.40
48390;BME280;34643;47.964;7.982;2023-07-28T19:15:15;96426.47;;;20.54;62.40
48390;BME280;34643;47.964;7.982;2023-07-28T19:20:15;96427.31;;;20.54;62.43
48390;BME280;34643;47.964;7.982;2023-07-28T19:25:19;96413.53;;;20.52;62.49
48390;BME280;34643;47.964;7.982;2023-07-28T19:30:19;96428.13;;;20.55;62.57
48390;BME280;34643;47.964;7.982;2023-07-28T19:35:21;96427.31;;;20.54;62.55
48390;BME280;34643;47.964;7.982;2023-07-28T19:40:21;96426.63;;;20.52;62.78
48390;BME280;34643;47.964;7.982;2023-07-28T19:45:23;96429.94;;;20.54;62.74
48390;BME280;34643;47.964;7.982;2023-07-28T19:50:23;96429.78;;;20.56;62.90
48390;BME280;34643;47.964;7.982;2023-07-28T19:55:23;96422.06;;;20.54;62.86
48390;BME280;34643;47.964;7.982;2023-07-28T20:00:24;96433.50;;;20.53;62.74
48390;BME280;34643;47.964;7.982;2023-07-28T20:05:24;96425.63;;;20.53;62.92
48390;BME280;34643;47.964;7.982;2023-07-28T20:10:24;96431.72;;;20.54;63.12
48390;BME280;34643;47.964;7.982;2023-07-28T20:15:24;96422.19;;;20.52;63.52
48390;BME280;34643;47.964;7.982;2023-07-28T20:20:25;96422.19;;;20.52;63.08
48390;BME280;34643;47.964;7.982;2023-07-28T20:25:25;96422.19;;;20.52;62.76
48390;BME280;34643;47.964;7.982;2023-07-28T20:30:25;96425.38;;;20.56;62.22
48390;BME280;34643;47.964;7.982;2023-07-28T20:35:26;96441.91;;;20.57;62.45
48390;BME280;34643;47.964;7.982;2023-07-28T20:40:26;96436.97;;;20.63;62.32
48390;BME280;34643;47.964;7.982;2023-07-28T20:45:26;96431.59;;;20.65;63.10
48390;BME280;34643;47.964;7.982;2023-07-28T20:50:27;96437.09;;;20.72;62.17
48390;BME280;34643;47.964;7.982;2023-07-28T20:55:27;96430.56;;;20.76;62.02
48390;BME280;34643;47.964;7.982;2023-07-28T21:00:28;96426.44;;;20.73;61.77
48390;BME280;34643;47.964;7.982;2023-07-28T21:05:31;96430.19;;;20.70;61.80
48390;BME280;34643;47.964;7.982;2023-07-28T21:10:31;96437.38;;;20.68;61.77
48390;BME280;34643;47.964;7.982;2023-07-28T21:15:35;96432.25;;;20.67;61.88
48390;BME280;34643;47.964;7.982;2023-07-28T21:20:35;96428.69;;;20.68;61.73
48390;BME280;34643;47.964;7.982;2023-07-28T21:25:36;96422.59;;;20.67;61.90
48390;BME280;34643;47.964;7.982;2023-07-28T21:30:36;96411.28;;;20.67;61.88
48390;BME280;34643;47.964;7.982;2023-07-28T21:35:36;96406.84;;;20.67;61.97
48390;BME280;34643;47.964;7.982;2023-07-28T21:40:37;96401.75;;;20.66;61.84
48390;BME280;34643;47.964;7.982;2023-07-28T21:45:39;96402.59;;;20.66;61.79
48390;BME280;34643;47.964;7.982;2023-07-28T21:50:39;96407.00;;;20.66;62.80
48390;BME280;34643;47.964;7.982;2023-07-28T21:55:40;96402.75;;;20.65;62.68
48390;BME280;34643;47.964;7.982;2023-07-28T22:00:40;96400.25;;;20.63;62.79
48390;BME280;34643;47.964;7.982;2023-07-28T22:05:41;96401.06;;;20.64;62.79
48390;BME280;34643;47.964;7.982;2023-07-28T22:10:42;96398.44;;;20.64;62.80
48390;BME280;34643;47.964;7.982;2023-07-28T22:15:42;96399.44;;;20.63;62.80
48390;BME280;34643;47.964;7.982;2023-07-28T22:20:42;96398.59;;;20.62;62.85
48390;BME280;34643;47.964;7.982;2023-07-28T22:25:44;96389.78;;;20.63;62.97
48390;BME280;34643;47.964;7.982;2023-07-28T22:30:44;96392.53;;;20.62;62.75
48390;BME280;34643;47.964;7.982;2023-07-28T22:35:44;96381.22;;;20.61;63.03
48390;BME280;34643;47.964;7.982;2023-07-28T22:40:45;96375.13;;;20.61;62.93
48390;BME280;34643;47.964;7.982;2023-07-28T22:45:45;96374.19;;;20.62;62.82
48390;BME280;34643;47.964;7.982;2023-07-28T22:50:45;96383.84;;;20.61;63.03
48390;BME280;34643;47.964;7.982;2023-07-28T22:55:45;96392.63;;;20.60;63.05
48390;BME280;34643;47.964;7.982;2023-07-28T23:00:46;96379.53;;;20.60;62.85
48390;BME280;34643;47.964;7.982;2023-07-28T23:05:46;96367.41;;;20.59;62.78
48390;BME280;34643;47.964;7.982;2023-07-28T23:10:47;96369.03;;;20.60;62.89
48390;BME280;34643;47.964;7.982;2023-07-28T23:15:47;96367.25;;;20.61;62.49
48390;BME280;34643;47.964;7.982;2023-07-28T23:20:49;96364.66;;;20.61;62.69
48390;BME280;34643;47.964;7.982;2023-07-28T23:25:49;96356.06;;;20.59;62.95
48390;BME280;34643;47.964;7.982;2023-07-28T23:30:49;96362.97;;;20.60;63.04
48390;BME280;34643;47.964;7.982;2023-07-28T23:35:50;96362.16;;;20.59;62.97
48390;BME280;34643;47.964;7.982;2023-07-28T23:40:50;96354.16;;;20.61;62.66
48390;BME280;34643;47.964;7.982;2023-07-28T23:45:50;96368.22;;;20.60;62.61
48390;BME280;34643;47.964;7.982;2023-07-28T23:50:53;96365.59;;;20.60;62.38
48390;BME280;34643;47.964;7.982;2023-07-28T23:55:54;96362.16;;;20.59;62.30
